Lancaster, OH (43130)

4:45 AM EDT en Julio 24, 2016 (GMT -0400)
W Wheeling St Near N George St | | Change Station
Aviso en curso: Heat Advisory

Alt 835 ft 39.71 °N, 82.61 °W | Updated 1 minute ago

Partly Cloudy
Parcialmente nublado
73.3 ° F
Sensación térmica 70 ° F
N
0.0
Viento Variable Viento desde Oeste
Gusts 0.0 mph

Hoy
Alta -- | Baja -- ° F
--% Posibilidad de precipitaciones
Ayer
Alta -- | Baja -- ° F
Precip. -- pul
Presión 30.01 pul
Visibilidad 2.5 Millas
Nubes Baja 300 ft
Índice de calor 70 ° F
Punto de rocío 71 ° F
Humedad 93%
Precipitaciones 0.00 pul
Espesor de la nieve No disponible.
6:22 AM 8:50 PM
Gibosa menguante, 78% visible
SPECI KLHQ 240839Z AUTO 00000KT 2 1/2SM BR FEW003 21/21 A3001 RMK AO2 T02110206
Presión 30.01 pul
Visibilidad 2.5 Millas
Nubes Baja 300 ft
Índice de calor 70 ° F
Punto de rocío 71 ° F
Humedad 93%
Precipitaciones 0.00 pul
Espesor de la nieve No disponible.
6:22 AM 8:50 PM
Gibosa menguante, 78% visible
SPECI KLHQ 240839Z AUTO 00000KT 2 1/2SM BR FEW003 21/21 A3001 RMK AO2 T02110206

10-Day Weather Forecast

Almanac

Astronomía

Jul. 24, 2016 Salida Puesta
Hora real
Crepúsculo civil
Crepúsculo náutico
Crepúsculo astronómico
Luna
Horas de luz
Horas de luz
Tomorrow will be .
, % of the Moon is Illuminated

Extremos de hoy

Máximos del estado Bajos del estado

Community

WunderPhotos

Upload Photos

1,927,041 ¡fotos cargadas!

WunderBlog® & News

Nearby

Calidad del aire

  Calidad del aire Índice AQ Contaminante
Not available.

Grosos de nieve

Estación Profundido Altura

Actividad de terremotos

Ciudad Distance Mag. Tiempo y dato
Magnitud mínima muestra es 2,5.

Temperaturas de aguas costeras

Lugar Temperatura

Stations

Estaciones meteorológicas cercanas

Ubicación de la estación Temp. Vientos helados Punto de rocío Humedad Viento Precip. Alt Actualizado Tipo
                   

Watches & Warnings

Heat Advisory
Issued: 3:43 AM EDT Jul. 24, 2016 – National Weather Service

... Heat advisory remains in effect until 8 PM EDT this evening...

* heat index values... from 100 to 104 due to temperatures in the
lower 90s... and dewpoints in the lower to middle 70s.

* Timing... highest temperatures and heat indices will occur
during the afternoon hours.

* Impacts... heat stroke... heat exhaustion and other heat related
illnesses will be possible... especially if you spend a
significant amount of time outdoors... or are involved in any
strenuous outdoor activity.

Precautionary/preparedness actions...

Reduce outdoor activities... especially from mid-morning through
the afternoon. Wear light weight and loose fitting clothing and
drink plenty of water. If possible... spend more time in air
conditioned or well ventilated places.

To reduce risk during outdoor work the occupational safety and
health administration recommends scheduling frequent rest breaks
in shaded or air conditioned environments. Anyone overcome by
heat should be moved to a cool and shaded location. Heat stroke
is an emergency... call 911.